^^
Station Historical Data
Daily Summary for December 24, 2017 Units:  Both    English   Metric
« Previous Day
Next Day »
Daily Weekly Monthly Yearly Custom
  High: Low: Average:
Temperature: TemperatureF °F /  -17.8 °C 59.4 °F /  15.2 °C 77.5 °F /  25.3 °C
Dew Point: DewpointF °F /  -17.8 °C 27.3 °F /  -2.6 °C 39.8 °F /  4.3 °C
Humidity: Humidity% 15% 29%
Wind Speed: WindSpeedMPHmph /  0km/h - 2.3mph /  3.7km/h
Wind Gust: WindSpeedGustMPHmph /  0km/h - -
Wind- - SSW
Pressure: PressureIn in /  0 hPa 29.96 in /  1014.4 hPa -
Precipitation: 0.00 in /  0 mm    
Historical Graphs
 
 
Tabular Data for December 24, 2017
Time Temperature Dew Point Pressure Wind Wind Speed Wind Gust Humidity Rainfall Rate (Hourly) solar Conditions
TemperatureF °F /  -17.8 °C DewpointF °F /  -17.8 °C PressureInin /  0hPa Calm     Humidity% HourlyPrecipInin /  0mm SolarRadiationWatts/m^2 W/m2 Conditions
00:00 74.5 °F /  23.6 °C 36.3 °F /  2.4 °C 30.11in /  1019.5hPa West 0.9mph /  1.4km/h 3.0mph /  4.8km/h 25% 0.00in /  0mm 0.0 W/m2
00:05 74.1 °F /  23.4 °C 36.0 °F /  2.2 °C 30.11in /  1019.5hPa NNW 2.0mph /  3.2km/h 2.0mph /  3.2km/h 25% 0.00in /  0mm 0.0 W/m2
00:08 73.9 °F /  23.3 °C 36.0 °F /  2.2 °C 30.11in /  1019.5hPa North 4.0mph /  6.4km/h 7.0mph /  11.3km/h 25% 0.00in /  0mm 0.0 W/m2
00:13 73.6 °F /  23.1 °C 36.5 °F /  2.5 °C 30.11in /  1019.5hPa NNE 4.0mph /  6.4km/h 7.0mph /  11.3km/h 26% 0.00in /  0mm 0.0 W/m2
00:18 73.0 °F /  22.8 °C 37.0 °F /  2.8 °C 30.11in /  1019.5hPa NNW 2.0mph /  3.2km/h 6.0mph /  9.7km/h 27% 0.00in /  0mm 0.0 W/m2
00:23 72.7 °F /  22.6 °C 37.8 °F /  3.2 °C 30.11in /  1019.5hPa NW 2.0mph /  3.2km/h 3.0mph /  4.8km/h 28% 0.00in /  0mm 0.0 W/m2
00:28 72.1 °F /  22.3 °C 38.1 °F /  3.4 °C 30.11in /  1019.5hPa ENE 0.9mph /  1.4km/h 6.0mph /  9.7km/h 29% 0.00in /  0mm 0.0 W/m2
00:33 71.8 °F /  22.1 °C 39.6 °F /  4.2 °C 30.11in /  1019.5hPa NE 2.0mph /  3.2km/h 7.0mph /  11.3km/h 31% 0.00in /  0mm 0.0 W/m2
00:38 71.2 °F /  21.8 °C 40.6 °F /  4.8 °C 30.11in /  1019.5hPa North 2.9mph /  4.7km/h 4.0mph /  6.4km/h 33% 0.00in /  0mm 0.0 W/m2
00:42 70.9 °F /  21.6 °C 41.2 °F /  5.1 °C 30.11in /  1019.5hPa North 0.9mph /  1.4km/h 7.0mph /  11.3km/h 34% 0.00in /  0mm 0.0 W/m2
00:46 70.5 °F /  21.4 °C 41.5 °F /  5.3 °C 30.11in /  1019.5hPa Calm   3.0mph /  4.8km/h 35% 0.00in /  0mm 0.0 W/m2
00:49 70.3 °F /  21.3 °C 41.4 °F /  5.2 °C 30.11in /  1019.5hPa Calm   1.0mph /  1.6km/h 35% 0.00in /  0mm 0.0 W/m2
00:56 70.0 °F /  21.1 °C 41.7 °F /  5.4 °C 30.11in /  1019.5hPa Calm     36% 0.00in /  0mm 0.0 W/m2
01:01 69.6 °F /  20.9 °C 42.3 °F /  5.7 °C 30.11in /  1019.5hPa Calm     37% 0.00in /  0mm 0.0 W/m2
01:06 69.4 °F /  20.8 °C 42.8 °F /  6 °C 30.11in /  1019.5hPa Calm     38% 0.00in /  0mm 0.0 W/m2
01:11 69.1 °F /  20.6 °C 43.2 °F /  6.2 °C 30.10in /  1019.2hPa Calm     39% 0.00in /  0mm 0.0 W/m2
01:16 68.9 °F /  20.5 °C 43.5 °F /  6.4 °C 30.10in /  1019.2hPa Calm     40% 0.00in /  0mm 0.0 W/m2
01:21 68.5 °F /  20.3 °C 43.3 °F /  6.3 °C 30.10in /  1019.2hPa Calm     40% 0.00in /  0mm 0.0 W/m2
01:23 68.4 °F /  20.2 °C 43.2 °F /  6.2 °C 30.10in /  1019.2hPa Calm     40% 0.00in /  0mm 0.0 W/m2
01:28 68.0 °F /  20 °C 43.3 °F /  6.3 °C 30.10in /  1019.2hPa Calm     41% 0.00in /  0mm 0.0 W/m2
01:33 67.6 °F /  19.8 °C 43.7 °F /  6.5 °C 30.10in /  1019.2hPa Calm     42% 0.00in /  0mm 0.0 W/m2
01:39 67.3 °F /  19.6 °C 44.1 °F /  6.7 °C 30.10in /  1019.2hPa Calm     43% 0.00in /  0mm 0.0 W/m2
01:45 66.9 °F /  19.4 °C 43.7 °F /  6.5 °C 30.09in /  1018.8hPa Calm     43% 0.00in /  0mm 0.0 W/m2
01:49 66.7 °F /  19.3 °C 43.5 °F /  6.4 °C 30.10in /  1019.2hPa Calm     43% 0.00in /  0mm 0.0 W/m2
01:54 66.6 °F /  19.2 °C 43.3 °F /  6.3 °C 30.09in /  1018.8hPa Calm     43% 0.00in /  0mm 0.0 W/m2
01:59 66.2 °F /  19 °C 43.7 °F /  6.5 °C 30.09in /  1018.8hPa Calm     44% 0.00in /  0mm 0.0 W/m2
02:04 66.0 °F /  18.9 °C 43.5 °F /  6.4 °C 30.09in /  1018.8hPa Calm   1.0mph /  1.6km/h 44% 0.00in /  0mm 0.0 W/m2
02:09 65.8 °F /  18.8 °C 43.9 °F /  6.6 °C 30.09in /  1018.8hPa Calm     45% 0.00in /  0mm 0.0 W/m2
02:14 65.7 °F /  18.7 °C 45.0 °F /  7.2 °C 30.09in /  1018.8hPa Calm     47% 0.00in /  0mm 0.0 W/m2
02:19 65.5 °F /  18.6 °C 45.3 °F /  7.4 °C 30.09in /  1018.8hPa Calm     48% 0.00in /  0mm 0.0 W/m2
02:24 65.1 °F /  18.4 °C 45.5 °F /  7.5 °C 30.09in /  1018.8hPa Calm   1.0mph /  1.6km/h 49% 0.00in /  0mm 0.0 W/m2
02:29 64.9 °F /  18.3 °C 46.4 °F /  8 °C 30.09in /  1018.8hPa Calm   1.0mph /  1.6km/h 51% 0.00in /  0mm 0.0 W/m2
02:34 64.8 °F /  18.2 °C 46.2 °F /  7.9 °C 30.09in /  1018.8hPa Calm   1.0mph /  1.6km/h 51% 0.00in /  0mm 0.0 W/m2
02:40 64.2 °F /  17.9 °C 46.2 °F /  7.9 °C 30.09in /  1018.8hPa Calm   1.0mph /  1.6km/h 52% 0.00in /  0mm 0.0 W/m2
02:45 64.0 °F /  17.8 °C 46.6 °F /  8.1 °C 30.09in /  1018.8hPa Calm   1.0mph /  1.6km/h 53% 0.00in /  0mm 0.0 W/m2
02:47 63.9 °F /  17.7 °C 45.9 °F /  7.7 °C 30.09in /  1018.8hPa Calm   2.0mph /  3.2km/h 52% 0.00in /  0mm 0.0 W/m2
02:52 63.7 °F /  17.6 °C 46.8 °F /  8.2 °C 30.09in /  1018.8hPa Calm     54% 0.00in /  0mm 0.0 W/m2
02:57 63.3 °F /  17.4 °C 46.4 °F /  8 °C 30.08in /  1018.5hPa Calm     54% 0.00in /  0mm 0.0 W/m2
03:02 63.0 °F /  17.2 °C 46.6 °F /  8.1 °C 30.08in /  1018.5hPa Calm     55% 0.00in /  0mm 0.0 W/m2
03:05 63.0 °F /  17.2 °C 46.6 °F /  8.1 °C 30.08in /  1018.5hPa Calm     55% 0.00in /  0mm 0.0 W/m2
03:10 62.6 °F /  17 °C 46.8 °F /  8.2 °C 30.08in /  1018.5hPa Calm     56% 0.00in /  0mm 0.0 W/m2
03:15 62.4 °F /  16.9 °C 46.9 °F /  8.3 °C 30.08in /  1018.5hPa Calm     57% 0.00in /  0mm 0.0 W/m2
03:18 62.2 °F /  16.8 °C 46.8 °F /  8.2 °C 30.08in /  1018.5hPa Calm     57% 0.00in /  0mm 0.0 W/m2
03:23 62.1 °F /  16.7 °C 47.1 °F /  8.4 °C 30.08in /  1018.5hPa Calm   3.0mph /  4.8km/h 58% 0.00in /  0mm 0.0 W/m2
03:28 61.9 °F /  16.6 °C 47.5 °F /  8.6 °C 30.08in /  1018.5hPa Calm   2.0mph /  3.2km/h 59% 0.00in /  0mm 0.0 W/m2
03:34 61.9 °F /  16.6 °C 47.5 °F /  8.6 °C 30.08in /  1018.5hPa Calm   1.0mph /  1.6km/h 59% 0.00in /  0mm 0.0 W/m2
03:37 61.9 °F /  16.6 °C 47.8 °F /  8.8 °C 30.08in /  1018.5hPa Calm   1.0mph /  1.6km/h 60% 0.00in /  0mm 0.0 W/m2
03:42 61.7 °F /  16.5 °C 47.7 °F /  8.7 °C 30.08in /  1018.5hPa Calm     60% 0.00in /  0mm 0.0 W/m2
03:47 61.5 °F /  16.4 °C 47.1 °F /  8.4 °C 30.08in /  1018.5hPa Calm   1.0mph /  1.6km/h 59% 0.00in /  0mm 0.0 W/m2
03:52 61.3 °F /  16.3 °C 46.9 °F /  8.3 °C 30.08in /  1018.5hPa Calm     59% 0.00in /  0mm 0.0 W/m2
03:57 61.2 °F /  16.2 °C 46.8 °F /  8.2 °C 30.08in /  1018.5hPa Calm   1.0mph /  1.6km/h 59% 0.00in /  0mm 0.0 W/m2
04:00 61.0 °F /  16.1 °C 46.9 °F /  8.3 °C 30.08in /  1018.5hPa SE 2.0mph /  3.2km/h 2.0mph /  3.2km/h 60% 0.00in /  0mm 0.0 W/m2
04:07 60.8 °F /  16 °C 46.4 °F /  8 °C 30.08in /  1018.5hPa Calm     59% 0.00in /  0mm 0.0 W/m2
04:13 60.6 °F /  15.9 °C 46.2 °F /  7.9 °C 30.08in /  1018.5hPa Calm     59% 0.00in /  0mm 0.0 W/m2
04:14 60.6 °F /  15.9 °C 46.6 °F /  8.1 °C 30.08in /  1018.5hPa Calm     60% 0.00in /  0mm 0.0 W/m2
04:19 60.6 °F /  15.9 °C 46.6 °F /  8.1 °C 30.07in /  1018.2hPa Calm   1.0mph /  1.6km/h 60% 0.00in /  0mm 0.0 W/m2
04:24 60.4 °F /  15.8 °C 47.3 °F /  8.5 °C 30.07in /  1018.2hPa Calm     62% 0.00in /  0mm 0.0 W/m2
04:30 60.4 °F /  15.8 °C 47.3 °F /  8.5 °C 30.08in /  1018.5hPa Calm     62% 0.00in /  0mm 0.0 W/m2
04:35 60.3 °F /  15.7 °C 47.1 °F /  8.4 °C 30.08in /  1018.5hPa Calm   1.0mph /  1.6km/h 62% 0.00in /  0mm 0.0 W/m2
04:36 60.3 °F /  15.7 °C 47.1 °F /  8.4 °C 30.08in /  1018.5hPa SE 0.9mph /  1.4km/h 1.0mph /  1.6km/h 62% 0.00in /  0mm 0.0 W/m2
04:41 60.1 °F /  15.6 °C 47.8 °F /  8.8 °C 30.08in /  1018.5hPa Calm     64% 0.00in /  0mm 0.0 W/m2
04:46 59.9 °F /  15.5 °C 47.7 °F /  8.7 °C 30.08in /  1018.5hPa Calm     64% 0.00in /  0mm 0.0 W/m2
04:51 59.7 °F /  15.4 °C 46.8 °F /  8.2 °C 30.08in /  1018.5hPa Calm   1.0mph /  1.6km/h 62% 0.00in /  0mm 0.0 W/m2
04:55 59.5 °F /  15.3 °C 46.6 °F /  8.1 °C 30.08in /  1018.5hPa Calm   1.0mph /  1.6km/h 62% 0.00in /  0mm 0.0 W/m2
05:00 59.5 °F /  15.3 °C 46.6 °F /  8.1 °C 30.07in /  1018.2hPa Calm     62% 0.00in /  0mm 0.0 W/m2
05:06 59.5 °F /  15.3 °C 46.9 °F /  8.3 °C 30.08in /  1018.5hPa Calm   1.0mph /  1.6km/h 63% 0.00in /  0mm 0.0 W/m2
05:07 59.5 °F /  15.3 °C 46.9 °F /  8.3 °C 30.07in /  1018.2hPa Calm     63% 0.00in /  0mm 0.0 W/m2
05:12 59.4 °F /  15.2 °C 46.8 °F /  8.2 °C 30.07in /  1018.2hPa Calm     63% 0.00in /  0mm 0.0 W/m2
05:14 59.4 °F /  15.2 °C 46.4 °F /  8 °C 30.07in /  1018.2hPa Calm   1.0mph /  1.6km/h 62% 0.00in /  0mm 0.0 W/m2
05:19 59.4 °F /  15.2 °C 46.4 °F /  8 °C 30.07in /  1018.2hPa Calm     62% 0.00in /  0mm 0.0 W/m2
05:24 59.4 °F /  15.2 °C 46.8 °F /  8.2 °C 30.07in /  1018.2hPa Calm     63% 0.00in /  0mm 0.0 W/m2
05:29 59.4 °F /  15.2 °C 47.1 °F /  8.4 °C 30.07in /  1018.2hPa Calm     64% 0.00in /  0mm 0.0 W/m2
05:34 59.4 °F /  15.2 °C 47.7 °F /  8.7 °C 30.08in /  1018.5hPa Calm     65% 0.00in /  0mm 0.0 W/m2
05:39 59.4 °F /  15.2 °C 48.0 °F /  8.9 °C 30.08in /  1018.5hPa Calm     66% 0.00in /  0mm 0.0 W/m2
05:44 59.4 °F /  15.2 °C 46.4 °F /  8 °C 30.07in /  1018.2hPa Calm     62% 0.00in /  0mm 0.0 W/m2
05:50 59.4 °F /  15.2 °C 46.8 °F /  8.2 °C 30.07in /  1018.2hPa Calm   1.0mph /  1.6km/h 63% 0.00in /  0mm 0.0 W/m2
05:55 59.4 °F /  15.2 °C 45.9 °F /  7.7 °C 30.07in /  1018.2hPa Calm     61% 0.00in /  0mm 0.0 W/m2
06:01 59.4 °F /  15.2 °C 45.0 °F /  7.2 °C 30.07in /  1018.2hPa Calm     59% 0.00in /  0mm 0.0 W/m2
06:05 59.5 °F /  15.3 °C 44.8 °F /  7.1 °C 30.07in /  1018.2hPa ESE 0.9mph /  1.4km/h 1.0mph /  1.6km/h 58% 0.00in /  0mm 0.0 W/m2
06:10 59.7 °F /  15.4 °C 42.1 °F /  5.6 °C 30.08in /  1018.5hPa Calm   3.0mph /  4.8km/h 52% 0.00in /  0mm 7.0 W/m2
06:15 60.1 °F /  15.6 °C 43.3 °F /  6.3 °C 30.08in /  1018.5hPa Calm   1.0mph /  1.6km/h 54% 0.00in /  0mm 12.0 W/m2
06:18 60.3 °F /  15.7 °C 41.5 °F /  5.3 °C 30.08in /  1018.5hPa Calm   1.0mph /  1.6km/h 50% 0.00in /  0mm 16.0 W/m2
06:23 60.6 °F /  15.9 °C 39.7 °F /  4.3 °C 30.08in /  1018.5hPa SE 0.9mph /  1.4km/h 5.0mph /  8km/h 46% 0.00in /  0mm 21.0 W/m2
06:29 61.0 °F /  16.1 °C 38.3 °F /  3.5 °C 30.08in /  1018.5hPa Calm   5.0mph /  8km/h 43% 0.00in /  0mm 23.0 W/m2
06:35 62.6 °F /  17 °C 36.0 °F /  2.2 °C 30.09in /  1018.8hPa SW 2.0mph /  3.2km/h 5.0mph /  8km/h 37% 0.00in /  0mm 30.0 W/m2
06:40 64.0 °F /  17.8 °C 33.6 °F /  0.9 °C 30.09in /  1018.8hPa SSE 6.0mph /  9.7km/h 10.0mph /  16.1km/h 32% 0.00in /  0mm 35.0 W/m2
06:43 64.9 °F /  18.3 °C 33.6 °F /  0.9 °C 30.09in /  1018.8hPa SSE 4.0mph /  6.4km/h 6.0mph /  9.7km/h 31% 0.00in /  0mm 39.0 W/m2
06:48 66.2 °F /  19 °C 33.1 °F /  0.6 °C 30.09in /  1018.8hPa SE 4.0mph /  6.4km/h 9.0mph /  14.5km/h 29% 0.00in /  0mm 44.0 W/m2
06:50 66.6 °F /  19.2 °C 32.4 °F /  0.2 °C 30.09in /  1018.8hPa SSE 6.0mph /  9.7km/h 10.0mph /  16.1km/h 28% 0.00in /  0mm 46.0 W/m2
06:55 67.6 °F /  19.8 °C 32.5 °F /  0.3 °C 30.09in /  1018.8hPa SE 4.0mph /  6.4km/h 9.0mph /  14.5km/h 27% 0.00in /  0mm 54.0 W/m2
06:56 67.8 °F /  19.9 °C 32.5 °F /  0.3 °C 30.09in /  1018.8hPa South 4.9mph /  7.9km/h 9.0mph /  14.5km/h 27% 0.00in /  0mm 54.0 W/m2
07:01 68.4 °F /  20.2 °C 32.2 °F /  0.1 °C 30.10in /  1019.2hPa SE 4.9mph /  7.9km/h 10.0mph /  16.1km/h 26% 0.00in /  0mm 60.0 W/m2
07:03 68.5 °F /  20.3 °C 33.3 °F /  0.7 °C 30.10in /  1019.2hPa South 2.9mph /  4.7km/h 10.0mph /  16.1km/h 27% 0.00in /  0mm 63.0 W/m2
07:08 69.1 °F /  20.6 °C 32.7 °F /  0.4 °C 30.10in /  1019.2hPa SSW 0.9mph /  1.4km/h 10.0mph /  16.1km/h 26% 0.00in /  0mm 70.0 W/m2
07:10 69.3 °F /  20.7 °C 32.0 °F /  0 °C 30.10in /  1019.2hPa SE 4.9mph /  7.9km/h 10.0mph /  16.1km/h 25% 0.00in /  0mm 72.0 W/m2
07:15 69.4 °F /  20.8 °C 32.0 °F /  0 °C 30.10in /  1019.2hPa ESE 10.1mph /  16.3km/h 13.0mph /  20.9km/h 25% 0.00in /  0mm 83.0 W/m2
07:20 69.8 °F /  21 °C 31.5 °F /  -0.3 °C 30.10in /  1019.2hPa SSE 8.1mph /  13km/h 12.0mph /  19.3km/h 24% 0.00in /  0mm 86.0 W/m2
07:24 70.2 °F /  21.2 °C 31.6 °F /  -0.2 °C 30.10in /  1019.2hPa SSE 6.9mph /  11.1km/h 15.0mph /  24.1km/h 24% 0.00in /  0mm 88.0 W/m2
07:29 70.2 °F /  21.2 °C 31.6 °F /  -0.2 °C 30.11in /  1019.5hPa ESE 4.0mph /  6.4km/h 14.0mph /  22.5km/h 24% 0.00in /  0mm 90.0 W/m2
07:34 70.3 °F /  21.3 °C 30.7 °F /  -0.7 °C 30.11in /  1019.5hPa SE 8.9mph /  14.3km/h 12.0mph /  19.3km/h 23% 0.00in /  0mm 91.0 W/m2
07:39 70.3 °F /  21.3 °C 32.9 °F /  0.5 °C 30.11in /  1019.5hPa ESE 0.9mph /  1.4km/h 9.0mph /  14.5km/h 25% 0.00in /  0mm 95.0 W/m2
07:44 70.3 °F /  21.3 °C 31.8 °F /  -0.1 °C 30.11in /  1019.5hPa SE 6.0mph /  9.7km/h 8.0mph /  12.9km/h 24% 0.00in /  0mm 125.0 W/m2
07:49 70.3 °F /  21.3 °C 30.7 °F /  -0.7 °C 30.11in /  1019.5hPa SE 0.9mph /  1.4km/h 6.0mph /  9.7km/h 23% 0.00in /  0mm 134.0 W/m2
07:54 70.5 °F /  21.4 °C 30.9 °F /  -0.6 °C 30.11in /  1019.5hPa SSE 6.9mph /  11.1km/h 11.0mph /  17.7km/h 23% 0.00in /  0mm 223.0 W/m2
07:56 70.5 °F /  21.4 °C 30.9 °F /  -0.6 °C 30.11in /  1019.5hPa SE 2.0mph /  3.2km/h 9.0mph /  14.5km/h 23% 0.00in /  0mm 262.0 W/m2
08:00 70.7 °F /  21.5 °C 31.1 °F /  -0.5 °C 30.11in /  1019.5hPa SE 4.0mph /  6.4km/h 9.0mph /  14.5km/h 23% 0.00in /  0mm 294.0 W/m2
08:05 71.1 °F /  21.7 °C 31.5 °F /  -0.3 °C 30.11in /  1019.5hPa SSE 2.9mph /  4.7km/h 8.0mph /  12.9km/h 23% 0.00in /  0mm 285.0 W/m2
08:10 71.4 °F /  21.9 °C 33.8 °F /  1 °C 30.11in /  1019.5hPa SE 6.0mph /  9.7km/h 10.0mph /  16.1km/h 25% 0.00in /  0mm 396.0 W/m2
08:15 72.1 °F /  22.3 °C 31.1 °F /  -0.5 °C 30.11in /  1019.5hPa SE 6.9mph /  11.1km/h 13.0mph /  20.9km/h 22% 0.00in /  0mm 446.0 W/m2
08:20 72.7 °F /  22.6 °C 30.6 °F /  -0.8 °C 30.11in /  1019.5hPa SSE 6.0mph /  9.7km/h 9.0mph /  14.5km/h 21% 0.00in /  0mm 410.0 W/m2
08:25 73.0 °F /  22.8 °C 30.7 °F /  -0.7 °C 30.11in /  1019.5hPa SE 2.9mph /  4.7km/h 6.0mph /  9.7km/h 21% 0.00in /  0mm 330.0 W/m2
08:27 73.0 °F /  22.8 °C 30.7 °F /  -0.7 °C 30.11in /  1019.5hPa SSE 2.0mph /  3.2km/h 9.0mph /  14.5km/h 21% 0.00in /  0mm 454.0 W/m2
08:32 73.6 °F /  23.1 °C 30.0 °F /  -1.1 °C 30.12in /  1019.9hPa SE 4.0mph /  6.4km/h 6.0mph /  9.7km/h 20% 0.00in /  0mm 540.0 W/m2
08:35 73.8 °F /  23.2 °C 28.9 °F /  -1.7 °C 30.11in /  1019.5hPa SE 6.0mph /  9.7km/h 10.0mph /  16.1km/h 19% 0.00in /  0mm 592.0 W/m2
08:40 74.5 °F /  23.6 °C 29.5 °F /  -1.4 °C 30.11in /  1019.5hPa SSE 6.0mph /  9.7km/h 11.0mph /  17.7km/h 19% 0.00in /  0mm 545.0 W/m2
08:45 75.0 °F /  23.9 °C 28.6 °F /  -1.9 °C 30.11in /  1019.5hPa East 4.9mph /  7.9km/h 9.0mph /  14.5km/h 18% 0.00in /  0mm 541.0 W/m2
08:49 75.2 °F /  24 °C 27.3 °F /  -2.6 °C 30.11in /  1019.5hPa SSE 2.9mph /  4.7km/h 12.0mph /  19.3km/h 17% 0.00in /  0mm 510.0 W/m2
08:55 75.6 °F /  24.2 °C 27.7 °F /  -2.4 °C 30.11in /  1019.5hPa SE 6.9mph /  11.1km/h 11.0mph /  17.7km/h 17% 0.00in /  0mm 448.0 W/m2
09:01 75.9 °F /  24.4 °C 29.3 °F /  -1.5 °C 30.11in /  1019.5hPa SSE 6.0mph /  9.7km/h 10.0mph /  16.1km/h 18% 0.00in /  0mm 601.0 W/m2
09:06 76.5 °F /  24.7 °C 29.8 °F /  -1.2 °C 30.12in /  1019.9hPa SSE 2.9mph /  4.7km/h 8.0mph /  12.9km/h 18% 0.00in /  0mm 628.0 W/m2
09:11 77.2 °F /  25.1 °C 28.9 °F /  -1.7 °C 30.12in /  1019.9hPa SE 0.9mph /  1.4km/h 8.0mph /  12.9km/h 17% 0.00in /  0mm 684.0 W/m2
09:17 77.7 °F /  25.4 °C 29.5 °F /  -1.4 °C 30.12in /  1019.9hPa SSW 4.0mph /  6.4km/h 10.0mph /  16.1km/h 17% 0.00in /  0mm 707.0 W/m2
09:22 78.3 °F /  25.7 °C 29.8 °F /  -1.2 °C 30.12in /  1019.9hPa SSE 4.9mph /  7.9km/h 11.0mph /  17.7km/h 17% 0.00in /  0mm 721.0 W/m2
09:28 79.0 °F /  26.1 °C 30.4 °F /  -0.9 °C 30.12in /  1019.9hPa South 6.0mph /  9.7km/h 9.0mph /  14.5km/h 17% 0.00in /  0mm 722.0 W/m2
09:33 79.3 °F /  26.3 °C 29.3 °F /  -1.5 °C 30.12in /  1019.9hPa South 4.0mph /  6.4km/h 11.0mph /  17.7km/h 16% 0.00in /  0mm 747.0 W/m2
09:38 80.1 °F /  26.7 °C 31.3 °F /  -0.4 °C 30.12in /  1019.9hPa SE 0.9mph /  1.4km/h 8.0mph /  12.9km/h 17% 0.00in /  0mm 768.0 W/m2
09:44 80.8 °F /  27.1 °C 30.4 °F /  -0.9 °C 30.12in /  1019.9hPa SSW 4.0mph /  6.4km/h 8.0mph /  12.9km/h 16% 0.00in /  0mm 779.0 W/m2
09:47 81.0 °F /  27.2 °C 30.6 °F /  -0.8 °C 30.11in /  1019.5hPa SE 4.0mph /  6.4km/h 10.0mph /  16.1km/h 16% 0.00in /  0mm 791.0 W/m2
09:52 81.3 °F /  27.4 °C 30.9 °F /  -0.6 °C 30.11in /  1019.5hPa WSW 2.9mph /  4.7km/h 7.0mph /  11.3km/h 16% 0.00in /  0mm 807.0 W/m2
09:57 81.3 °F /  27.4 °C 30.9 °F /  -0.6 °C 30.11in /  1019.5hPa SW 6.9mph /  11.1km/h 11.0mph /  17.7km/h 16% 0.00in /  0mm 828.0 W/m2
10:00 81.7 °F /  27.6 °C 32.5 °F /  0.3 °C 30.11in /  1019.5hPa SSW 6.0mph /  9.7km/h 8.0mph /  12.9km/h 17% 0.00in /  0mm 835.0 W/m2
10:05 81.7 °F /  27.6 °C 34.0 °F /  1.1 °C 30.11in /  1019.5hPa Calm   6.0mph /  9.7km/h 18% 0.00in /  0mm 847.0 W/m2
10:10 82.2 °F /  27.9 °C 35.8 °F /  2.1 °C 30.11in /  1019.5hPa SE 2.9mph /  4.7km/h 8.0mph /  12.9km/h 19% 0.00in /  0mm 861.0 W/m2
10:15 82.4 °F /  28 °C 34.7 °F /  1.5 °C 30.11in /  1019.5hPa SSW 2.9mph /  4.7km/h 9.0mph /  14.5km/h 18% 0.00in /  0mm 877.0 W/m2
10:20 82.8 °F /  28.2 °C 37.6 °F /  3.1 °C 30.11in /  1019.5hPa SSW 4.0mph /  6.4km/h 7.0mph /  11.3km/h 20% 0.00in /  0mm 888.0 W/m2
10:25 83.5 °F /  28.6 °C 36.9 °F /  2.7 °C 30.11in /  1019.5hPa Calm   5.0mph /  8km/h 19% 0.00in /  0mm 902.0 W/m2
10:30 83.8 °F /  28.8 °C 41.0 °F /  5 °C 30.11in /  1019.5hPa South 4.9mph /  7.9km/h 8.0mph /  12.9km/h 22% 0.00in /  0mm 912.0 W/m2
10:35 84.0 °F /  28.9 °C 41.0 °F /  5 °C 30.11in /  1019.5hPa SSW 2.9mph /  4.7km/h 10.0mph /  16.1km/h 22% 0.00in /  0mm 928.0 W/m2
10:41 84.0 °F /  28.9 °C 42.3 °F /  5.7 °C 30.11in /  1019.5hPa West 4.9mph /  7.9km/h 6.0mph /  9.7km/h 23% 0.00in /  0mm 944.0 W/m2
10:42 84.0 °F /  28.9 °C 42.3 °F /  5.7 °C 30.10in /  1019.2hPa WSW 4.0mph /  6.4km/h 6.0mph /  9.7km/h 23% 0.00in /  0mm 946.0 W/m2
10:47 84.0 °F /  28.9 °C 42.3 °F /  5.7 °C 30.10in /  1019.2hPa WNW 2.0mph /  3.2km/h 4.0mph /  6.4km/h 23% 0.00in /  0mm 969.0 W/m2
10:52 84.0 °F /  28.9 °C 41.0 °F /  5 °C 30.10in /  1019.2hPa WSW 4.9mph /  7.9km/h 6.0mph /  9.7km/h 22% 0.00in /  0mm 981.0 W/m2
10:57 84.0 °F /  28.9 °C 39.9 °F /  4.4 °C 30.10in /  1019.2hPa West 0.9mph /  1.4km/h 3.0mph /  4.8km/h 21% 0.00in /  0mm 998.0 W/m2
11:02 84.4 °F /  29.1 °C 39.0 °F /  3.9 °C 30.10in /  1019.2hPa West 2.0mph /  3.2km/h 6.0mph /  9.7km/h 20% 0.00in /  0mm 1005.0 W/m2
11:07 84.4 °F /  29.1 °C 41.4 °F /  5.2 °C 30.10in /  1019.2hPa ENE 2.9mph /  4.7km/h 5.0mph /  8km/h 22% 0.00in /  0mm 1020.0 W/m2
11:12 85.1 °F /  29.5 °C 40.8 °F /  4.9 °C 30.09in /  1018.8hPa Calm   1.0mph /  1.6km/h 21% 0.00in /  0mm 1023.0 W/m2
11:17 85.8 °F /  29.9 °C 41.4 °F /  5.2 °C 30.09in /  1018.8hPa SE 4.0mph /  6.4km/h 6.0mph /  9.7km/h 21% 0.00in /  0mm 1030.0 W/m2
11:22 86.0 °F /  30 °C 41.5 °F /  5.3 °C 30.09in /  1018.8hPa SE 0.9mph /  1.4km/h 3.0mph /  4.8km/h 21% 0.00in /  0mm 1041.0 W/m2
11:28 85.8 °F /  29.9 °C 40.1 °F /  4.5 °C 30.09in /  1018.8hPa WSW 2.9mph /  4.7km/h 5.0mph /  8km/h 20% 0.00in /  0mm 1048.0 W/m2
11:33 85.6 °F /  29.8 °C 41.2 °F /  5.1 °C 30.09in /  1018.8hPa Calm   4.0mph /  6.4km/h 21% 0.00in /  0mm 1081.0 W/m2
11:38 86.2 °F /  30.1 °C 41.7 °F /  5.4 °C 30.08in /  1018.5hPa SSW 0.9mph /  1.4km/h 3.0mph /  4.8km/h 21% 0.00in /  0mm 1074.0 W/m2
11:39 86.4 °F /  30.2 °C 43.0 °F /  6.1 °C 30.09in /  1018.8hPa South 2.0mph /  3.2km/h 3.0mph /  4.8km/h 22% 0.00in /  0mm 1074.0 W/m2
11:43 86.5 °F /  30.3 °C 40.6 °F /  4.8 °C 30.08in /  1018.5hPa SE 2.0mph /  3.2km/h 4.0mph /  6.4km/h 20% 0.00in /  0mm 1069.0 W/m2
11:47 87.1 °F /  30.6 °C 43.7 °F /  6.5 °C 30.08in /  1018.5hPa NNW 6.9mph /  11.1km/h 9.0mph /  14.5km/h 22% 0.00in /  0mm 1055.0 W/m2
11:52 87.6 °F /  30.9 °C 42.8 °F /  6 °C 30.08in /  1018.5hPa North 0.9mph /  1.4km/h 7.0mph /  11.3km/h 21% 0.00in /  0mm 1079.0 W/m2
11:53 87.6 °F /  30.9 °C 44.1 °F /  6.7 °C 30.08in /  1018.5hPa NW 4.9mph /  7.9km/h 5.0mph /  8km/h 22% 0.00in /  0mm 1079.0 W/m2
11:58 87.6 °F /  30.9 °C 42.8 °F /  6 °C 30.08in /  1018.5hPa WNW 0.9mph /  1.4km/h 3.0mph /  4.8km/h 21% 0.00in /  0mm 1079.0 W/m2
12:03 88.0 °F /  31.1 °C 44.4 °F /  6.9 °C 30.08in /  1018.5hPa Calm   2.0mph /  3.2km/h 22% 0.00in /  0mm 1099.0 W/m2
12:09 88.3 °F /  31.3 °C 43.5 °F /  6.4 °C 30.08in /  1018.5hPa West 2.0mph /  3.2km/h 3.0mph /  4.8km/h 21% 0.00in /  0mm 125.0 W/m2
12:15 88.2 °F /  31.2 °C 42.1 °F /  5.6 °C 30.08in /  1018.5hPa Calm   2.0mph /  3.2km/h 20% 0.00in /  0mm 1092.0 W/m2
12:20 88.3 °F /  31.3 °C 43.5 °F /  6.4 °C 30.08in /  1018.5hPa NNW 4.9mph /  7.9km/h 7.0mph /  11.3km/h 21% 0.00in /  0mm 1092.0 W/m2
12:25 88.5 °F /  31.4 °C 43.5 °F /  6.4 °C 30.08in /  1018.5hPa SW 4.0mph /  6.4km/h 6.0mph /  9.7km/h 21% 0.00in /  0mm 1083.0 W/m2
12:28 88.2 °F /  31.2 °C 43.3 °F /  6.3 °C 30.07in /  1018.2hPa North 6.0mph /  9.7km/h 11.0mph /  17.7km/h 21% 0.00in /  0mm 1085.0 W/m2
12:33 88.5 °F /  31.4 °C 42.3 °F /  5.7 °C 30.07in /  1018.2hPa Calm   5.0mph /  8km/h 20% 0.00in /  0mm 1092.0 W/m2
12:38 88.5 °F /  31.4 °C 43.5 °F /  6.4 °C 30.07in /  1018.2hPa WSW 6.9mph /  11.1km/h 8.0mph /  12.9km/h 21% 0.00in /  0mm 1095.0 W/m2
12:43 88.2 °F /  31.2 °C 42.1 °F /  5.6 °C 30.06in /  1017.8hPa Calm   6.0mph /  9.7km/h 20% 0.00in /  0mm 1092.0 W/m2
12:45 88.2 °F /  31.2 °C 43.3 °F /  6.3 °C 30.07in /  1018.2hPa West 0.9mph /  1.4km/h 2.0mph /  3.2km/h 21% 0.00in /  0mm 1088.0 W/m2
12:50 88.5 °F /  31.4 °C 43.5 °F /  6.4 °C 30.06in /  1017.8hPa WNW 4.0mph /  6.4km/h 8.0mph /  12.9km/h 21% 0.00in /  0mm 1092.0 W/m2
12:55 88.5 °F /  31.4 °C 43.5 °F /  6.4 °C 30.06in /  1017.8hPa WSW 4.0mph /  6.4km/h 8.0mph /  12.9km/h 21% 0.00in /  0mm 1106.0 W/m2
13:00 88.0 °F /  31.1 °C 43.2 °F /  6.2 °C 30.06in /  1017.8hPa WNW 2.9mph /  4.7km/h 5.0mph /  8km/h 21% 0.00in /  0mm 1095.0 W/m2
13:06 88.2 °F /  31.2 °C 43.3 °F /  6.3 °C 30.06in /  1017.8hPa SE 4.0mph /  6.4km/h 8.0mph /  12.9km/h 21% 0.00in /  0mm 1134.0 W/m2
13:11 88.5 °F /  31.4 °C 43.5 °F /  6.4 °C 30.06in /  1017.8hPa SE 4.0mph /  6.4km/h 5.0mph /  8km/h 21% 0.00in /  0mm 1167.0 W/m2
13:16 89.1 °F /  31.7 °C 42.8 °F /  6 °C 30.06in /  1017.8hPa East 4.0mph /  6.4km/h 4.0mph /  6.4km/h 20% 0.00in /  0mm 1192.0 W/m2
13:21 89.8 °F /  32.1 °C 42.1 °F /  5.6 °C 30.06in /  1017.8hPa NW 2.0mph /  3.2km/h 3.0mph /  4.8km/h 19% 0.00in /  0mm 1086.0 W/m2
13:26 90.1 °F /  32.3 °C 42.3 °F /  5.7 °C 30.05in /  1017.5hPa Calm   5.0mph /  8km/h 19% 0.00in /  0mm 1155.0 W/m2
13:29 90.1 °F /  32.3 °C 42.3 °F /  5.7 °C 30.05in /  1017.5hPa WSW 2.9mph /  4.7km/h 7.0mph /  11.3km/h 19% 0.00in /  0mm 1120.0 W/m2
13:34 90.1 °F /  32.3 °C 41.0 °F /  5 °C 30.05in /  1017.5hPa SSW 0.9mph /  1.4km/h 6.0mph /  9.7km/h 18% 0.00in /  0mm 1076.0 W/m2
13:39 90.1 °F /  32.3 °C 42.3 °F /  5.7 °C 30.05in /  1017.5hPa NNW 2.0mph /  3.2km/h 5.0mph /  8km/h 19% 0.00in /  0mm 1078.0 W/m2
13:41 90.3 °F /  32.4 °C 42.4 °F /  5.8 °C 30.05in /  1017.5hPa WNW 4.0mph /  6.4km/h 6.0mph /  9.7km/h 19% 0.00in /  0mm 1083.0 W/m2
13:47 90.5 °F /  32.5 °C 41.2 °F /  5.1 °C 30.05in /  1017.5hPa Calm   1.0mph /  1.6km/h 18% 0.00in /  0mm 1067.0 W/m2
13:52 90.9 °F /  32.7 °C 41.5 °F /  5.3 °C 30.05in /  1017.5hPa Calm   7.0mph /  11.3km/h 18% 0.00in /  0mm 1092.0 W/m2
13:57 91.2 °F /  32.9 °C 41.7 °F /  5.4 °C 30.05in /  1017.5hPa NNW 6.0mph /  9.7km/h 7.0mph /  11.3km/h 18% 0.00in /  0mm 1114.0 W/m2
14:02 90.9 °F /  32.7 °C 41.5 °F /  5.3 °C 30.05in /  1017.5hPa SSE 2.0mph /  3.2km/h 3.0mph /  4.8km/h 18% 0.00in /  0mm 1113.0 W/m2
14:07 90.7 °F /  32.6 °C 41.4 °F /  5.2 °C 30.04in /  1017.2hPa WSW 2.0mph /  3.2km/h 5.0mph /  8km/h 18% 0.00in /  0mm 1048.0 W/m2
14:12 90.3 °F /  32.4 °C 41.0 °F /  5 °C 30.04in /  1017.2hPa East 2.0mph /  3.2km/h 6.0mph /  9.7km/h 18% 0.00in /  0mm 1025.0 W/m2
14:18 91.2 °F /  32.9 °C 40.3 °F /  4.6 °C 30.03in /  1016.8hPa NNE 0.9mph /  1.4km/h 7.0mph /  11.3km/h 17% 0.00in /  0mm 1011.0 W/m2
14:23 91.9 °F /  33.3 °C 40.8 °F /  4.9 °C 30.04in /  1017.2hPa WNW 0.9mph /  1.4km/h 5.0mph /  8km/h 17% 0.00in /  0mm 1011.0 W/m2
14:27 92.3 °F /  33.5 °C 39.6 °F /  4.2 °C 30.03in /  1016.8hPa WSW 2.0mph /  3.2km/h 4.0mph /  6.4km/h 16% 0.00in /  0mm 1005.0 W/m2
14:32 92.3 °F /  33.5 °C 41.2 °F /  5.1 °C 30.03in /  1016.8hPa NE 0.9mph /  1.4km/h 7.0mph /  11.3km/h 17% 0.00in /  0mm 997.0 W/m2
14:38 92.7 °F /  33.7 °C 39.9 °F /  4.4 °C 30.03in /  1016.8hPa NE 0.9mph /  1.4km/h 7.0mph /  11.3km/h 16% 0.00in /  0mm 986.0 W/m2
14:41 92.7 °F /  33.7 °C 41.5 °F /  5.3 °C 30.03in /  1016.8hPa SSE 0.9mph /  1.4km/h 4.0mph /  6.4km/h 17% 0.00in /  0mm 977.0 W/m2
14:46 92.7 °F /  33.7 °C 41.5 °F /  5.3 °C 30.03in /  1016.8hPa SSE 4.0mph /  6.4km/h 5.0mph /  8km/h 17% 0.00in /  0mm 977.0 W/m2
14:51 92.8 °F /  33.8 °C 41.5 °F /  5.3 °C 30.02in /  1016.5hPa NNW 2.0mph /  3.2km/h 3.0mph /  4.8km/h 17% 0.00in /  0mm 963.0 W/m2
14:56 93.4 °F /  34.1 °C 40.5 °F /  4.7 °C 30.02in /  1016.5hPa East 0.9mph /  1.4km/h 5.0mph /  8km/h 16% 0.00in /  0mm 960.0 W/m2
14:57 93.6 °F /  34.2 °C 42.3 °F /  5.7 °C 30.02in /  1016.5hPa Calm   5.0mph /  8km/h 17% 0.00in /  0mm 953.0 W/m2
15:02 93.7 °F /  34.3 °C 42.3 °F /  5.7 °C 30.02in /  1016.5hPa South 4.0mph /  6.4km/h 5.0mph /  8km/h 17% 0.00in /  0mm 932.0 W/m2
15:07 93.9 °F /  34.4 °C 42.4 °F /  5.8 °C 30.01in /  1016.1hPa WNW 4.9mph /  7.9km/h 7.0mph /  11.3km/h 17% 0.00in /  0mm 919.0 W/m2
15:12 93.6 °F /  34.2 °C 42.3 °F /  5.7 °C 30.02in /  1016.5hPa SSW 6.0mph /  9.7km/h 10.0mph /  16.1km/h 17% 0.00in /  0mm 919.0 W/m2
15:17 92.7 °F /  33.7 °C 41.5 °F /  5.3 °C 30.01in /  1016.1hPa ESE 0.9mph /  1.4km/h 4.0mph /  6.4km/h 17% 0.00in /  0mm 911.0 W/m2
15:20 92.8 °F /  33.8 °C 43.2 °F /  6.2 °C 30.01in /  1016.1hPa East 4.9mph /  7.9km/h 5.0mph /  8km/h 18% 0.00in /  0mm 891.0 W/m2
15:25 93.2 °F /  34 °C 41.9 °F /  5.5 °C 30.00in /  1015.8hPa North 7.0mph /  11.3km/h 7.0mph /  11.3km/h 17% 0.00in /  0mm 877.0 W/m2
15:30 93.4 °F /  34.1 °C 43.5 °F /  6.4 °C 30.00in /  1015.8hPa SW 2.0mph /  3.2km/h 5.0mph /  8km/h 18% 0.00in /  0mm 860.0 W/m2
15:35 93.4 °F /  34.1 °C 43.5 °F /  6.4 °C 30.00in /  1015.8hPa Calm   3.0mph /  4.8km/h 18% 0.00in /  0mm 865.0 W/m2
15:40 93.9 °F /  34.4 °C 42.4 °F /  5.8 °C 30.00in /  1015.8hPa SW 2.9mph /  4.7km/h 4.0mph /  6.4km/h 17% 0.00in /  0mm 838.0 W/m2
15:43 93.9 °F /  34.4 °C 42.4 °F /  5.8 °C 30.00in /  1015.8hPa North 2.9mph /  4.7km/h 4.0mph /  6.4km/h 17% 0.00in /  0mm 835.0 W/m2
15:48 94.3 °F /  34.6 °C 42.8 °F /  6 °C 29.99in /  1015.5hPa Calm   5.0mph /  8km/h 17% 0.00in /  0mm 846.0 W/m2
15:53 95.0 °F /  35 °C 43.3 °F /  6.3 °C 29.99in /  1015.5hPa NW 2.9mph /  4.7km/h 8.0mph /  12.9km/h 17% 0.00in /  0mm 849.0 W/m2
15:58 95.4 °F /  35.2 °C 43.7 °F /  6.5 °C 29.99in /  1015.5hPa NNW 2.0mph /  3.2km/h 7.0mph /  11.3km/h 17% 0.00in /  0mm 849.0 W/m2
16:02 95.2 °F /  35.1 °C 43.5 °F /  6.4 °C 29.98in /  1015.1hPa North 2.0mph /  3.2km/h 5.0mph /  8km/h 17% 0.00in /  0mm 810.0 W/m2
16:07 95.0 °F /  35 °C 43.3 °F /  6.3 °C 29.98in /  1015.1hPa Calm   4.0mph /  6.4km/h 17% 0.00in /  0mm 160.0 W/m2
16:12 94.3 °F /  34.6 °C 42.8 °F /  6 °C 29.98in /  1015.1hPa NNW 4.9mph /  7.9km/h 8.0mph /  12.9km/h 17% 0.00in /  0mm 271.0 W/m2
16:18 93.6 °F /  34.2 °C 43.7 °F /  6.5 °C 29.98in /  1015.1hPa North 4.0mph /  6.4km/h 4.0mph /  6.4km/h 18% 0.00in /  0mm 754.0 W/m2
16:23 92.7 °F /  33.7 °C 44.4 °F /  6.9 °C 29.98in /  1015.1hPa NE 2.9mph /  4.7km/h 4.0mph /  6.4km/h 19% 0.00in /  0mm 144.0 W/m2
16:28 92.7 °F /  33.7 °C 43.0 °F /  6.1 °C 29.98in /  1015.1hPa NNE 2.9mph /  4.7km/h 6.0mph /  9.7km/h 18% 0.00in /  0mm 738.0 W/m2
16:34 92.5 °F /  33.6 °C 42.8 °F /  6 °C 29.97in /  1014.8hPa Calm   3.0mph /  4.8km/h 18% 0.00in /  0mm 160.0 W/m2
16:40 92.5 °F /  33.6 °C 44.2 °F /  6.8 °C 29.97in /  1014.8hPa NNW 4.9mph /  7.9km/h 7.0mph /  11.3km/h 19% 0.00in /  0mm 698.0 W/m2
16:45 92.7 °F /  33.7 °C 43.0 °F /  6.1 °C 29.97in /  1014.8hPa NNW 2.0mph /  3.2km/h 6.0mph /  9.7km/h 18% 0.00in /  0mm 671.0 W/m2
16:50 92.7 °F /  33.7 °C 44.4 °F /  6.9 °C 29.97in /  1014.8hPa NNE 2.0mph /  3.2km/h 4.0mph /  6.4km/h 19% 0.00in /  0mm 636.0 W/m2
16:51 92.8 °F /  33.8 °C 44.6 °F /  7 °C 29.97in /  1014.8hPa Calm   3.0mph /  4.8km/h 19% 0.00in /  0mm 633.0 W/m2
16:56 92.8 °F /  33.8 °C 44.6 °F /  7 °C 29.97in /  1014.8hPa North 0.9mph /  1.4km/h 2.0mph /  3.2km/h 19% 0.00in /  0mm 144.0 W/m2
17:02 92.8 °F /  33.8 °C 43.2 °F /  6.2 °C 29.97in /  1014.8hPa SW 2.0mph /  3.2km/h 5.0mph /  8km/h 18% 0.00in /  0mm 348.0 W/m2
17:06 92.7 °F /  33.7 °C 41.5 °F /  5.3 °C 29.97in /  1014.8hPa WNW 2.9mph /  4.7km/h 5.0mph /  8km/h 17% 0.00in /  0mm 141.0 W/m2
17:12 92.1 °F /  33.4 °C 42.4 °F /  5.8 °C 29.96in /  1014.4hPa WNW 4.0mph /  6.4km/h 5.0mph /  8km/h 18% 0.00in /  0mm 594.0 W/m2
17:17 92.7 °F /  33.7 °C 44.4 °F /  6.9 °C 29.96in /  1014.4hPa West 0.9mph /  1.4km/h 3.0mph /  4.8km/h 19% 0.00in /  0mm 584.0 W/m2
17:22 92.8 °F /  33.8 °C 43.2 °F /  6.2 °C 29.96in /  1014.4hPa Calm   2.0mph /  3.2km/h 18% 0.00in /  0mm 218.0 W/m2
17:27 92.7 °F /  33.7 °C 43.0 °F /  6.1 °C 29.96in /  1014.4hPa Calm   3.0mph /  4.8km/h 18% 0.00in /  0mm 125.0 W/m2
17:33 91.9 °F /  33.3 °C 42.4 °F /  5.8 °C 29.96in /  1014.4hPa NW 4.9mph /  7.9km/h 5.0mph /  8km/h 18% 0.00in /  0mm 121.0 W/m2
17:36 91.4 °F /  33 °C 41.9 °F /  5.5 °C 29.96in /  1014.4hPa NNE 2.0mph /  3.2km/h 4.0mph /  6.4km/h 18% 0.00in /  0mm 104.0 W/m2
17:39 91.0 °F /  32.8 °C 43.0 °F /  6.1 °C 29.96in /  1014.4hPa NNW 0.9mph /  1.4km/h 2.0mph /  3.2km/h 19% 0.00in /  0mm 98.0 W/m2
17:50 90.3 °F /  32.4 °C 42.4 °F /  5.8 °C 29.96in /  1014.4hPa NW 2.0mph /  3.2km/h 4.0mph /  6.4km/h 19% 0.00in /  0mm 91.0 W/m2
17:53 90.1 °F /  32.3 °C 42.3 °F /  5.7 °C 29.97in /  1014.8hPa NNW 2.0mph /  3.2km/h 4.0mph /  6.4km/h 19% 0.00in /  0mm 95.0 W/m2
17:54 90.0 °F /  32.2 °C 42.3 °F /  5.7 °C 29.97in /  1014.8hPa NNW 6.9mph /  11.1km/h 8.0mph /  12.9km/h 19% 0.00in /  0mm 388.0 W/m2
17:59 90.0 °F /  32.2 °C 42.3 °F /  5.7 °C 29.97in /  1014.8hPa West 2.0mph /  3.2km/h 7.0mph /  11.3km/h 19% 0.00in /  0mm 360.0 W/m2
18:00 90.0 °F /  32.2 °C 42.3 °F /  5.7 °C 29.97in /  1014.8hPa NNW 2.0mph /  3.2km/h 6.0mph /  9.7km/h 19% 0.00in /  0mm 355.0 W/m2
18:05 90.3 °F /  32.4 °C 39.6 °F /  4.2 °C 29.97in /  1014.8hPa West 4.9mph /  7.9km/h 9.0mph /  14.5km/h 17% 0.00in /  0mm 90.0 W/m2
18:09 90.0 °F /  32.2 °C 36.1 °F /  2.3 °C 29.98in /  1015.1hPa WSW 4.9mph /  7.9km/h 13.0mph /  20.9km/h 15% 0.00in /  0mm 98.0 W/m2
18:14 88.9 °F /  31.6 °C 35.2 °F /  1.8 °C 29.98in /  1015.1hPa WSW 6.9mph /  11.1km/h 13.0mph /  20.9km/h 15% 0.00in /  0mm 100.0 W/m2
18:19 87.8 °F /  31 °C 34.3 °F /  1.3 °C 29.98in /  1015.1hPa South 4.0mph /  6.4km/h 11.0mph /  17.7km/h 15% 0.00in /  0mm 98.0 W/m2
18:24 87.4 °F /  30.8 °C 35.8 °F /  2.1 °C 29.98in /  1015.1hPa WNW 4.9mph /  7.9km/h 8.0mph /  12.9km/h 16% 0.00in /  0mm 146.0 W/m2
18:28 87.4 °F /  30.8 °C 35.8 °F /  2.1 °C 29.98in /  1015.1hPa SSW 4.0mph /  6.4km/h 10.0mph /  16.1km/h 16% 0.00in /  0mm 95.0 W/m2
18:34 87.4 °F /  30.8 °C 35.8 °F /  2.1 °C 29.98in /  1015.1hPa SSW 4.0mph /  6.4km/h 9.0mph /  14.5km/h 16% 0.00in /  0mm 111.0 W/m2
18:39 87.4 °F /  30.8 °C 35.8 °F /  2.1 °C 29.99in /  1015.5hPa WSW 4.9mph /  7.9km/h 12.0mph /  19.3km/h 16% 0.00in /  0mm 77.0 W/m2
18:44 87.3 °F /  30.7 °C 35.6 °F /  2 °C 29.99in /  1015.5hPa WSW 8.9mph /  14.3km/h 11.0mph /  17.7km/h 16% 0.00in /  0mm 69.0 W/m2
18:48 86.9 °F /  30.5 °C 36.9 °F /  2.7 °C 29.99in /  1015.5hPa WSW 4.0mph /  6.4km/h 10.0mph /  16.1km/h 17% 0.00in /  0mm 70.0 W/m2
18:53 86.5 °F /  30.3 °C 36.5 °F /  2.5 °C 30.00in /  1015.8hPa WSW 4.9mph /  7.9km/h 11.0mph /  17.7km/h 17% 0.00in /  0mm 70.0 W/m2
18:54 86.5 °F /  30.3 °C 36.5 °F /  2.5 °C 30.00in /  1015.8hPa NNW 4.9mph /  7.9km/h 8.0mph /  12.9km/h 17% 0.00in /  0mm 70.0 W/m2
18:59 86.2 °F /  30.1 °C 37.8 °F /  3.2 °C 30.00in /  1015.8hPa WNW 2.9mph /  4.7km/h 7.0mph /  11.3km/h 18% 0.00in /  0mm 60.0 W/m2
19:04 85.8 °F /  29.9 °C 37.4 °F /  3 °C 30.01in /  1016.1hPa West 8.9mph /  14.3km/h 13.0mph /  20.9km/h 18% 0.00in /  0mm 46.0 W/m2
19:10 85.1 °F /  29.5 °C 36.9 °F /  2.7 °C 30.01in /  1016.1hPa WSW 6.9mph /  11.1km/h 14.0mph /  22.5km/h 18% 0.00in /  0mm 42.0 W/m2
19:21 84.6 °F /  29.2 °C 36.3 °F /  2.4 °C 30.02in /  1016.5hPa SSW 4.9mph /  7.9km/h 12.0mph /  19.3km/h 18% 0.00in /  0mm 30.0 W/m2
19:22 84.0 °F /  28.9 °C 37.4 °F /  3 °C 30.02in /  1016.5hPa WSW 10.1mph /  16.3km/h 11.0mph /  17.7km/h 19% 0.00in /  0mm 25.0 W/m2
19:27 83.7 °F /  28.7 °C 37.0 °F /  2.8 °C 30.03in /  1016.8hPa WSW 8.1mph /  13km/h 9.0mph /  14.5km/h 19% 0.00in /  0mm 18.0 W/m2
19:32 83.1 °F /  28.4 °C 36.7 °F /  2.6 °C 30.03in /  1016.8hPa SSW 4.9mph /  7.9km/h 7.0mph /  11.3km/h 19% 0.00in /  0mm 12.0 W/m2
19:37 82.8 °F /  28.2 °C 36.3 °F /  2.4 °C 30.03in /  1016.8hPa WSW 4.9mph /  7.9km/h 12.0mph /  19.3km/h 19% 0.00in /  0mm 5.0 W/m2
19:42 82.4 °F /  28 °C 37.2 °F /  2.9 °C 30.04in /  1017.2hPa SSW 2.9mph /  4.7km/h 9.0mph /  14.5km/h 20% 0.00in /  0mm 0.0 W/m2
19:43 82.4 °F /  28 °C 37.2 °F /  2.9 °C 30.03in /  1016.8hPa WSW 6.9mph /  11.1km/h 10.0mph /  16.1km/h 20% 0.00in /  0mm 0.0 W/m2
19:48 81.9 °F /  27.7 °C 36.9 °F /  2.7 °C 30.04in /  1017.2hPa SSW 2.0mph /  3.2km/h 5.0mph /  8km/h 20% 0.00in /  0mm 0.0 W/m2
19:53 81.7 °F /  27.6 °C 37.9 °F /  3.3 °C 30.04in /  1017.2hPa South 2.9mph /  4.7km/h 11.0mph /  17.7km/h 21% 0.00in /  0mm 0.0 W/m2
19:58 81.3 °F /  27.4 °C 37.6 °F /  3.1 °C 30.04in /  1017.2hPa West 2.0mph /  3.2km/h 7.0mph /  11.3km/h 21% 0.00in /  0mm 0.0 W/m2
20:03 81.0 °F /  27.2 °C 37.4 °F /  3 °C 30.05in /  1017.5hPa WSW 2.0mph /  3.2km/h 8.0mph /  12.9km/h 21% 0.00in /  0mm 0.0 W/m2
20:04 81.0 °F /  27.2 °C 37.4 °F /  3 °C 30.05in /  1017.5hPa WSW 6.9mph /  11.1km/h 10.0mph /  16.1km/h 21% 0.00in /  0mm 0.0 W/m2
20:10 80.6 °F /  27 °C 37.0 °F /  2.8 °C 30.05in /  1017.5hPa West 4.9mph /  7.9km/h 7.0mph /  11.3km/h 21% 0.00in /  0mm 0.0 W/m2
20:15 80.2 °F /  26.8 °C 37.9 °F /  3.3 °C 30.06in /  1017.8hPa SSW 2.0mph /  3.2km/h 8.0mph /  12.9km/h 22% 0.00in /  0mm 0.0 W/m2
20:20 80.1 °F /  26.7 °C 37.8 °F /  3.2 °C 30.06in /  1017.8hPa SSE 2.0mph /  3.2km/h 4.0mph /  6.4km/h 22% 0.00in /  0mm 0.0 W/m2
20:24 79.7 °F /  26.5 °C 37.6 °F /  3.1 °C 30.06in /  1017.8hPa SW 2.9mph /  4.7km/h 6.0mph /  9.7km/h 22% 0.00in /  0mm 0.0 W/m2
20:29 79.5 °F /  26.4 °C 37.4 °F /  3 °C 30.06in /  1017.8hPa Calm   7.0mph /  11.3km/h 22% 0.00in /  0mm 0.0 W/m2
20:34 79.2 °F /  26.2 °C 38.1 °F /  3.4 °C 30.06in /  1017.8hPa SSE 0.9mph /  1.4km/h 4.0mph /  6.4km/h 23% 0.00in /  0mm 0.0 W/m2
20:39 79.0 °F /  26.1 °C 37.9 °F /  3.3 °C 30.07in /  1018.2hPa Calm   6.0mph /  9.7km/h 23% 0.00in /  0mm 0.0 W/m2
20:40 79.0 °F /  26.1 °C 37.9 °F /  3.3 °C 30.07in /  1018.2hPa Calm   3.0mph /  4.8km/h 23% 0.00in /  0mm 0.0 W/m2
20:46 78.6 °F /  25.9 °C 37.8 °F /  3.2 °C 30.07in /  1018.2hPa Calm   2.0mph /  3.2km/h 23% 0.00in /  0mm 0.0 W/m2
20:51 78.4 °F /  25.8 °C 38.7 °F /  3.7 °C 30.07in /  1018.2hPa Calm   3.0mph /  4.8km/h 24% 0.00in /  0mm 0.0 W/m2
20:56 78.3 °F /  25.7 °C 38.5 °F /  3.6 °C 30.08in /  1018.5hPa SSW 2.0mph /  3.2km/h 3.0mph /  4.8km/h 24% 0.00in /  0mm 0.0 W/m2
21:02 78.3 °F /  25.7 °C 38.5 °F /  3.6 °C 30.08in /  1018.5hPa Calm   3.0mph /  4.8km/h 24% 0.00in /  0mm 0.0 W/m2
21:07 78.1 °F /  25.6 °C 38.3 °F /  3.5 °C 30.08in /  1018.5hPa SW 4.0mph /  6.4km/h 4.0mph /  6.4km/h 24% 0.00in /  0mm 0.0 W/m2
21:12 77.7 °F /  25.4 °C 38.1 °F /  3.4 °C 30.08in /  1018.5hPa Calm   6.0mph /  9.7km/h 24% 0.00in /  0mm 0.0 W/m2
21:17 77.7 °F /  25.4 °C 38.1 °F /  3.4 °C 30.08in /  1018.5hPa Calm   4.0mph /  6.4km/h 24% 0.00in /  0mm 0.0 W/m2
21:19 77.7 °F /  25.4 °C 38.1 °F /  3.4 °C 30.09in /  1018.8hPa South 0.9mph /  1.4km/h 4.0mph /  6.4km/h 24% 0.00in /  0mm 0.0 W/m2
21:23 77.5 °F /  25.3 °C 37.9 °F /  3.3 °C 30.09in /  1018.8hPa Calm   9.0mph /  14.5km/h 24% 0.00in /  0mm 0.0 W/m2
21:28 77.5 °F /  25.3 °C 39.0 °F /  3.9 °C 30.09in /  1018.8hPa Calm     25% 0.00in /  0mm 0.0 W/m2
21:33 77.4 °F /  25.2 °C 38.8 °F /  3.8 °C 30.09in /  1018.8hPa Calm   4.0mph /  6.4km/h 25% 0.00in /  0mm 0.0 W/m2
21:38 77.2 °F /  25.1 °C 38.7 °F /  3.7 °C 30.09in /  1018.8hPa SSE 0.9mph /  1.4km/h 4.0mph /  6.4km/h 25% 0.00in /  0mm 0.0 W/m2
21:43 77.0 °F /  25 °C 39.6 °F /  4.2 °C 30.09in /  1018.8hPa South 0.9mph /  1.4km/h 2.0mph /  3.2km/h 26% 0.00in /  0mm 0.0 W/m2
21:44 76.8 °F /  24.9 °C 39.4 °F /  4.1 °C 30.10in /  1019.2hPa Calm   3.0mph /  4.8km/h 26% 0.00in /  0mm 0.0 W/m2
21:49 76.6 °F /  24.8 °C 38.1 °F /  3.4 °C 30.10in /  1019.2hPa Calm   3.0mph /  4.8km/h 25% 0.00in /  0mm 0.0 W/m2
21:55 76.5 °F /  24.7 °C 39.0 °F /  3.9 °C 30.10in /  1019.2hPa Calm   9.0mph /  14.5km/h 26% 0.00in /  0mm 0.0 W/m2
22:00 76.3 °F /  24.6 °C 38.8 °F /  3.8 °C 30.10in /  1019.2hPa SSW 2.0mph /  3.2km/h 6.0mph /  9.7km/h 26% 0.00in /  0mm 0.0 W/m2
22:05 76.3 °F /  24.6 °C 37.9 °F /  3.3 °C 30.10in /  1019.2hPa South 2.9mph /  4.7km/h 4.0mph /  6.4km/h 25% 0.00in /  0mm 0.0 W/m2
22:09 76.3 °F /  24.6 °C 37.9 °F /  3.3 °C 30.10in /  1019.2hPa SSW 2.9mph /  4.7km/h 8.0mph /  12.9km/h 25% 0.00in /  0mm 0.0 W/m2
22:14 76.1 °F /  24.5 °C 37.8 °F /  3.2 °C 30.10in /  1019.2hPa SSE 2.0mph /  3.2km/h 7.0mph /  11.3km/h 25% 0.00in /  0mm 0.0 W/m2
22:19 75.9 °F /  24.4 °C 38.7 °F /  3.7 °C 30.11in /  1019.5hPa West 0.9mph /  1.4km/h 5.0mph /  8km/h 26% 0.00in /  0mm 0.0 W/m2
22:20 75.9 °F /  24.4 °C 37.6 °F /  3.1 °C 30.11in /  1019.5hPa SSW 0.9mph /  1.4km/h 6.0mph /  9.7km/h 25% 0.00in /  0mm 0.0 W/m2
22:25 75.9 °F /  24.4 °C 38.7 °F /  3.7 °C 30.11in /  1019.5hPa SSW 2.9mph /  4.7km/h 4.0mph /  6.4km/h 26% 0.00in /  0mm 0.0 W/m2
22:30 75.7 °F /  24.3 °C 38.5 °F /  3.6 °C 30.11in /  1019.5hPa South 2.0mph /  3.2km/h 4.0mph /  6.4km/h 26% 0.00in /  0mm 0.0 W/m2
22:36 75.6 °F /  24.2 °C 38.3 °F /  3.5 °C 30.11in /  1019.5hPa SSE 4.0mph /  6.4km/h 9.0mph /  14.5km/h 26% 0.00in /  0mm 0.0 W/m2
22:41 75.6 °F /  24.2 °C 38.3 °F /  3.5 °C 30.12in /  1019.9hPa SSE 4.0mph /  6.4km/h 9.0mph /  14.5km/h 26% 0.00in /  0mm 0.0 W/m2
22:46 75.4 °F /  24.1 °C 38.1 °F /  3.4 °C 30.12in /  1019.9hPa SSW 2.0mph /  3.2km/h 10.0mph /  16.1km/h 26% 0.00in /  0mm 0.0 W/m2
22:51 75.0 °F /  23.9 °C 37.8 °F /  3.2 °C 30.12in /  1019.9hPa South 4.9mph /  7.9km/h 8.0mph /  12.9km/h 26% 0.00in /  0mm 0.0 W/m2
22:56 74.8 °F /  23.8 °C 37.6 °F /  3.1 °C 30.12in /  1019.9hPa WSW 2.0mph /  3.2km/h 9.0mph /  14.5km/h 26% 0.00in /  0mm 0.0 W/m2
23:01 74.7 °F /  23.7 °C 37.6 °F /  3.1 °C 30.12in /  1019.9hPa SSE 2.9mph /  4.7km/h 6.0mph /  9.7km/h 26% 0.00in /  0mm 0.0 W/m2
23:06 74.5 °F /  23.6 °C 37.4 °F /  3 °C 30.12in /  1019.9hPa SW 2.9mph /  4.7km/h 7.0mph /  11.3km/h 26% 0.00in /  0mm 0.0 W/m2
23:11 74.3 °F /  23.5 °C 37.2 °F /  2.9 °C 30.12in /  1019.9hPa West 6.9mph /  11.1km/h 7.0mph /  11.3km/h 26% 0.00in /  0mm 0.0 W/m2
23:16 73.9 °F /  23.3 °C 37.8 °F /  3.2 °C 30.12in /  1019.9hPa WSW 2.9mph /  4.7km/h 5.0mph /  8km/h 27% 0.00in /  0mm 0.0 W/m2
23:17 73.9 °F /  23.3 °C 36.9 °F /  2.7 °C 30.12in /  1019.9hPa SW 4.0mph /  6.4km/h 6.0mph /  9.7km/h 26% 0.00in /  0mm 0.0 W/m2
23:22 73.8 °F /  23.2 °C 37.8 °F /  3.2 °C 30.12in /  1019.9hPa WSW 4.0mph /  6.4km/h 6.0mph /  9.7km/h 27% 0.00in /  0mm 0.0 W/m2
23:26 73.8 °F /  23.2 °C 37.8 °F /  3.2 °C 30.12in /  1019.9hPa WSW 0.9mph /  1.4km/h 5.0mph /  8km/h 27% 0.00in /  0mm 0.0 W/m2
23:32 73.6 °F /  23.1 °C 36.5 °F /  2.5 °C 30.12in /  1019.9hPa WSW 2.9mph /  4.7km/h 7.0mph /  11.3km/h 26% 0.00in /  0mm 0.0 W/m2
23:37 73.4 °F /  23 °C 36.5 °F /  2.5 °C 30.12in /  1019.9hPa SSW 4.0mph /  6.4km/h 10.0mph /  16.1km/h 26% 0.00in /  0mm 0.0 W/m2
23:42 73.4 °F /  23 °C 36.5 °F /  2.5 °C 30.12in /  1019.9hPa SSW 0.9mph /  1.4km/h 3.0mph /  4.8km/h 26% 0.00in /  0mm 0.0 W/m2
23:47 73.2 °F /  22.9 °C 36.3 °F /  2.4 °C 30.12in /  1019.9hPa Calm   5.0mph /  8km/h 26% 0.00in /  0mm 0.0 W/m2
23:51 73.0 °F /  22.8 °C 36.1 °F /  2.3 °C 30.12in /  1019.9hPa Calm   6.0mph /  9.7km/h 26% 0.00in /  0mm 0.0 W/m2
23:56 72.9 °F /  22.7 °C 36.0 °F /  2.2 °C 30.13in /  1020.2hPa Calm   3.0mph /  4.8km/h 26% 0.00in /  0mm 0.0 W/m2
Olympia, Windhoek, Namibia
Compliments of Weather Underground - 3.5 mb